Terminal Aerodrome Forecast
Issued by NWS Kansas City/Pleasant Hill, MO

Home | Current Version | Previous Version | Text Only | Print | Product List | Glossary On
Versions: 1 2 3 4 5 6 7 8 9 10 11 12 13 14 15 16 17 18 19 20 21
000
FTUS43 KEAX 062000 AAA
TAFMCI
TAF AMD
KMCI 062004Z 0620/0718 18012KT P6SM SCT035 BKN070
     FM062030 19012KT P6SM VCTS SCT025CB BKN035
      TEMPO 0621/0624 VRB15G25KT 2SM TSRA OVC015CB
     FM070000 34010KT 3SM -TSRA SCT015CB OVC030
     FM070600 02012KT 6SM BR VCSH SCT015 OVC025=

USA.gov is the U.S. government's official web portal to all federal, state and local government web resources and services.